Time;durP1;ratioP1;P1;durP2;ratioP2;P2;SDS_P1;SDS_P2;PMS_P1;PMS_P2;Temp;Humidity;BMP_temperature;BMP_pressure;BME280_temperature;BME280_humidity;BME280_pressure;Samples;Min_cycle;Max_cycle;Signal;HPM_P1;HPM_P2
2022/04/04 00:00:44;;;;;;;;;;;8.10;99.90;;;;;;5112785;27;19915;-61
2022/04/04 00:03:10;;;;;;;;;;;8.20;99.90;;;;;;5138557;27;19915;-61
2022/04/04 00:05:36;;;;;;;;;;;8.20;99.90;;;;;;5120212;27;19911;-63
2022/04/04 00:08:02;;;;;;;;;;;8.20;99.90;;;;;;5133676;27;19930;-63
2022/04/04 00:10:28;;;;;;;;;;;8.30;99.90;;;;;;5129034;27;19918;-62
2022/04/04 00:12:53;;;;;;;;;;;8.30;99.90;;;;;;5124971;27;19960;-61
2022/04/04 00:15:19;;;;;;;;;;;8.40;99.90;;;;;;5116372;27;19926;-62
2022/04/04 00:17:47;;;;;;;;;;;8.30;99.90;;;;;;5125816;27;20355;-62
2022/04/04 00:20:13;;;;;;;;;;;8.30;99.90;;;;;;5117617;27;20284;-63
2022/04/04 00:22:39;;;;;;;;;;;8.30;99.90;;;;;;5126092;27;19912;-63
2022/04/04 00:25:05;;;;;;;;;;;8.20;99.90;;;;;;5101362;28;19907;-63
2022/04/04 00:27:31;;;;;;;;;;;8.20;99.90;;;;;;5129858;27;20436;-61
2022/04/04 00:29:56;;;;;;;;;;;8.20;99.90;;;;;;5129667;27;19939;-62
2022/04/04 00:32:22;;;;;;;;;;;8.20;99.90;;;;;;5122944;28;20006;-61
2022/04/04 00:34:47;;;;;;;;;;;8.20;99.90;;;;;;5120650;28;19923;-63
2022/04/04 00:37:13;;;;;;;;;;;8.10;99.90;;;;;;5130165;27;19925;-63
2022/04/04 00:39:39;;;;;;;;;;;8.20;99.90;;;;;;5123649;28;19912;-61
2022/04/04 00:42:06;;;;;;;;;;;8.10;99.90;;;;;;5121218;28;20310;-62
2022/04/04 00:44:31;;;;;;;;;;;8.10;99.90;;;;;;5107311;27;19912;-62
2022/04/04 00:46:57;;;;;;;;;;;8.00;99.90;;;;;;5114039;28;19998;-62
2022/04/04 00:49:22;;;;;;;;;;;8.00;99.90;;;;;;5102220;28;19911;-61
2022/04/04 00:51:48;;;;;;;;;;;8.00;99.90;;;;;;5114838;28;19911;-62
2022/04/04 00:54:14;;;;;;;;;;;8.00;99.90;;;;;;5121743;27;19919;-62
2022/04/04 00:56:40;;;;;;;;;;;8.10;99.90;;;;;;5129896;27;20381;-62
2022/04/04 00:59:06;;;;;;;;;;;8.10;99.90;;;;;;5108059;28;19912;-62
2022/04/04 01:01:32;;;;;;;;;;;8.00;99.90;;;;;;5115981;27;19919;-61
2022/04/04 01:03:57;;;;;;;;;;;7.90;99.90;;;;;;5106359;28;19919;-62
2022/04/04 01:06:23;;;;;;;;;;;7.90;99.90;;;;;;5124771;27;19944;-62
2022/04/04 01:08:49;;;;;;;;;;;8.00;99.90;;;;;;5109954;28;19956;-63
2022/04/04 01:11:14;;;;;;;;;;;8.00;99.90;;;;;;5129369;27;19919;-61
2022/04/04 01:13:46;;;;;;;;;;;8.00;99.90;;;;;;5127732;27;20493;-62
2022/04/04 01:16:12;;;;;;;;;;;8.00;99.90;;;;;;5109115;27;19919;-63
2022/04/04 01:18:38;;;;;;;;;;;8.00;99.90;;;;;;5131067;27;20395;-62
2022/04/04 01:21:03;;;;;;;;;;;7.90;99.90;;;;;;5134366;27;20340;-62
2022/04/04 01:23:34;;;;;;;;;;;7.90;99.90;;;;;;5113541;27;19920;-61
2022/04/04 01:25:59;;;;;;;;;;;7.80;99.90;;;;;;5127092;27;20556;-61
2022/04/04 01:28:25;;;;;;;;;;;7.80;99.90;;;;;;5130914;27;20396;-61
2022/04/04 01:30:53;;;;;;;;;;;7.70;99.90;;;;;;5135166;27;20340;-62
2022/04/04 01:33:19;;;;;;;;;;;7.70;99.90;;;;;;5135188;27;19918;-61
2022/04/04 01:35:45;;;;;;;;;;;7.70;99.90;;;;;;5128531;27;19954;-62
2022/04/04 01:38:11;;;;;;;;;;;7.60;99.90;;;;;;5131740;27;19911;-61
2022/04/04 01:40:36;;;;;;;;;;;7.60;99.90;;;;;;5114154;27;19916;-62
2022/04/04 01:43:02;;;;;;;;;;;7.60;99.90;;;;;;5112323;27;19947;-61
2022/04/04 01:48:16;;;;;;;;;;;7.70;99.90;;;;;;5079767;27;19912;-61
2022/04/04 01:50:42;;;;;;;;;;;7.80;99.90;;;;;;5127097;27;20372;-62
2022/04/04 01:55:56;;;;;;;;;;;7.70;99.90;;;;;;5126771;27;20403;-61
2022/04/04 01:58:23;;;;;;;;;;;7.60;99.90;;;;;;5127057;27;20002;-61
2022/04/04 02:00:49;;;;;;;;;;;7.70;99.90;;;;;;5088571;28;19923;-61
2022/04/04 02:03:15;;;;;;;;;;;7.70;99.90;;;;;;5129452;27;19912;-61
2022/04/04 02:05:40;;;;;;;;;;;7.60;99.90;;;;;;5128479;27;19919;-62
2022/04/04 02:08:06;;;;;;;;;;;7.50;99.90;;;;;;5128701;27;20027;-61
2022/04/04 02:10:32;;;;;;;;;;;7.50;99.90;;;;;;5131799;27;20352;-61
2022/04/04 02:12:57;;;;;;;;;;;7.50;99.90;;;;;;5125566;27;19972;-61
2022/04/04 02:15:23;;;;;;;;;;;7.50;99.90;;;;;;5128428;27;19962;-62
2022/04/04 02:17:50;;;;;;;;;;;7.50;99.90;;;;;;5123699;27;20184;-62
2022/04/04 02:20:15;;;;;;;;;;;7.50;99.90;;;;;;5124829;27;19911;-61
2022/04/04 02:22:41;;;;;;;;;;;7.50;99.90;;;;;;5130882;27;19981;-62
2022/04/04 02:25:07;;;;;;;;;;;7.50;99.90;;;;;;5125058;27;19912;-62
2022/04/04 02:27:32;;;;;;;;;;;7.50;99.90;;;;;;5130097;27;19915;-64
2022/04/04 02:29:58;;;;;;;;;;;7.50;99.90;;;;;;5125829;27;19911;-62
2022/04/04 02:32:23;;;;;;;;;;;7.40;99.90;;;;;;5131783;27;20250;-61
2022/04/04 02:34:50;;;;;;;;;;;7.30;99.90;;;;;;5130180;27;20010;-62
2022/04/04 02:37:15;;;;;;;;;;;7.40;99.90;;;;;;5109593;27;22199;-63
2022/04/04 02:39:41;;;;;;;;;;;7.30;99.90;;;;;;5109278;28;20372;-62
2022/04/04 02:42:07;;;;;;;;;;;7.20;99.90;;;;;;5129816;27;19941;-62
2022/04/04 02:44:33;;;;;;;;;;;7.30;99.90;;;;;;5120225;27;19955;-61
2022/04/04 02:46:59;;;;;;;;;;;7.20;99.90;;;;;;5136034;27;19912;-61
2022/04/04 02:49:25;;;;;;;;;;;7.20;99.90;;;;;;5124913;27;19947;-62
2022/04/04 02:51:52;;;;;;;;;;;7.20;99.90;;;;;;5132990;27;20133;-61
2022/04/04 02:54:17;;;;;;;;;;;7.20;99.90;;;;;;5124499;27;19912;-61
2022/04/04 02:56:43;;;;;;;;;;;7.10;99.90;;;;;;5129886;27;19923;-61
2022/04/04 02:59:09;;;;;;;;;;;7.10;99.90;;;;;;5119845;27;20316;-61
2022/04/04 03:01:35;;;;;;;;;;;7.10;99.90;;;;;;5124632;27;19916;-62
2022/04/04 03:04:02;;;;;;;;;;;7.10;99.90;;;;;;5122061;27;19912;-62
2022/04/04 03:06:28;;;;;;;;;;;7.10;99.90;;;;;;5125338;27;19912;-62
2022/04/04 03:08:54;;;;;;;;;;;7.00;99.90;;;;;;5124573;27;19912;-62
2022/04/04 03:11:20;;;;;;;;;;;7.10;99.90;;;;;;5117866;27;19912;-61
2022/04/04 03:13:45;;;;;;;;;;;7.10;99.90;;;;;;5122616;27;19926;-62
2022/04/04 03:16:11;;;;;;;;;;;7.00;99.90;;;;;;5129737;27;20381;-61
2022/04/04 03:18:37;;;;;;;;;;;7.00;99.90;;;;;;5128315;27;19926;-62
2022/04/04 03:21:03;;;;;;;;;;;7.10;99.90;;;;;;5132979;27;19918;-62
2022/04/04 03:23:29;;;;;;;;;;;7.10;99.90;;;;;;5114494;27;20409;-61
2022/04/04 03:25:55;;;;;;;;;;;7.00;99.90;;;;;;5122338;27;19912;-61
2022/04/04 03:28:20;;;;;;;;;;;7.00;99.90;;;;;;5127777;27;19917;-62
2022/04/04 03:30:47;;;;;;;;;;;7.00;99.90;;;;;;5128817;27;20341;-62
2022/04/04 03:33:12;;;;;;;;;;;7.00;99.90;;;;;;5113694;27;19912;-61
2022/04/04 03:35:38;;;;;;;;;;;7.00;99.90;;;;;;5130307;27;19927;-60
2022/04/04 03:38:04;;;;;;;;;;;6.90;99.90;;;;;;5135273;27;20260;-62
2022/04/04 03:40:30;;;;;;;;;;;6.90;99.90;;;;;;5130825;27;19911;-62
2022/04/04 03:42:57;;;;;;;;;;;6.80;99.90;;;;;;5131856;27;20309;-61
2022/04/04 03:45:24;;;;;;;;;;;6.80;99.90;;;;;;5133771;27;20357;-62
2022/04/04 03:47:50;;;;;;;;;;;6.80;99.90;;;;;;5128007;27;19911;-61
2022/04/04 03:50:16;;;;;;;;;;;6.80;99.90;;;;;;5128816;27;19912;-62
2022/04/04 03:52:43;;;;;;;;;;;6.70;99.90;;;;;;5127383;27;19951;-62
2022/04/04 03:55:10;;;;;;;;;;;6.70;99.90;;;;;;5132261;27;19923;-61
2022/04/04 03:57:36;;;;;;;;;;;6.70;99.90;;;;;;5124026;27;19974;-62
2022/04/04 04:00:02;;;;;;;;;;;6.70;99.90;;;;;;5123626;27;19923;-61
2022/04/04 04:02:27;;;;;;;;;;;6.70;99.90;;;;;;5128604;27;19958;-62
2022/04/04 04:04:53;;;;;;;;;;;6.70;99.90;;;;;;5116327;27;19955;-61
2022/04/04 04:07:24;;;;;;;;;;;6.70;99.90;;;;;;5127532;27;19918;-61
2022/04/04 04:09:50;;;;;;;;;;;6.70;99.90;;;;;;5130840;27;20284;-62
2022/04/04 04:12:15;;;;;;;;;;;6.70;99.90;;;;;;5114636;27;19916;-62
2022/04/04 04:14:41;;;;;;;;;;;6.70;99.90;;;;;;5105525;28;19916;-61
2022/04/04 04:17:08;;;;;;;;;;;6.70;99.90;;;;;;5108506;27;19951;-62
2022/04/04 04:22:20;;;;;;;;;;;6.70;99.90;;;;;;5124803;27;20285;-61
2022/04/04 04:24:45;;;;;;;;;;;6.70;99.90;;;;;;5123595;27;19959;-61
2022/04/04 04:27:12;;;;;;;;;;;6.70;99.90;;;;;;5127129;27;20369;-62
2022/04/04 04:29:38;;;;;;;;;;;6.70;99.90;;;;;;5118248;27;20345;-61
2022/04/04 04:32:04;;;;;;;;;;;6.70;99.90;;;;;;5099352;28;19916;-63
2022/04/04 04:34:30;;;;;;;;;;;6.70;99.90;;;;;;5127191;27;19920;-61
2022/04/04 04:36:56;;;;;;;;;;;6.60;99.90;;;;;;5111509;28;19919;-61
2022/04/04 04:39:22;;;;;;;;;;;6.70;99.90;;;;;;5126838;28;19919;-62
2022/04/04 04:41:49;;;;;;;;;;;6.70;99.90;;;;;;5119204;27;19915;-62
2022/04/04 04:44:14;;;;;;;;;;;6.70;99.90;;;;;;5129709;27;19919;-62
2022/04/04 04:46:40;;;;;;;;;;;6.70;99.90;;;;;;5123845;27;19979;-62
2022/04/04 04:49:05;;;;;;;;;;;6.70;99.90;;;;;;5131637;27;19911;-62
2022/04/04 04:51:31;;;;;;;;;;;6.70;99.90;;;;;;5131949;27;19919;-62
2022/04/04 04:53:57;;;;;;;;;;;6.70;99.90;;;;;;5130248;27;19920;-62
2022/04/04 04:56:22;;;;;;;;;;;6.70;99.90;;;;;;5131319;27;19919;-62
2022/04/04 04:58:48;;;;;;;;;;;6.70;99.90;;;;;;5109537;27;19907;-61
2022/04/04 05:01:14;;;;;;;;;;;6.70;99.90;;;;;;5128545;27;19916;-62
2022/04/04 05:03:39;;;;;;;;;;;6.70;99.90;;;;;;5130906;27;19915;-62
2022/04/04 05:06:05;;;;;;;;;;;6.70;99.90;;;;;;5124513;27;19911;-61
2022/04/04 05:08:31;;;;;;;;;;;6.80;99.90;;;;;;5111849;28;19911;-62
2022/04/04 05:10:57;;;;;;;;;;;6.80;99.90;;;;;;5125585;27;20008;-61
2022/04/04 05:13:22;;;;;;;;;;;6.90;99.90;;;;;;5127389;27;19926;-60
2022/04/04 05:15:48;;;;;;;;;;;6.90;99.90;;;;;;5111641;27;19984;-61
2022/04/04 05:18:13;;;;;;;;;;;6.90;99.90;;;;;;5115506;27;19911;-61
2022/04/04 05:20:39;;;;;;;;;;;6.90;99.90;;;;;;5117602;27;19911;-62
2022/04/04 05:23:05;;;;;;;;;;;6.90;99.90;;;;;;5127533;27;19915;-62
2022/04/04 05:25:30;;;;;;;;;;;6.90;99.90;;;;;;5126391;27;19989;-61
2022/04/04 05:27:57;;;;;;;;;;;6.90;99.90;;;;;;5129454;27;19919;-63
2022/04/04 05:30:23;;;;;;;;;;;7.00;99.90;;;;;;5108711;27;19926;-61
2022/04/04 05:32:49;;;;;;;;;;;7.00;99.90;;;;;;5131741;27;19928;-62
2022/04/04 05:35:16;;;;;;;;;;;7.00;99.90;;;;;;5115137;27;19920;-62
2022/04/04 05:37:42;;;;;;;;;;;7.10;99.90;;;;;;5137790;27;19912;-62
2022/04/04 05:40:08;;;;;;;;;;;7.10;99.90;;;;;;5124333;27;19923;-61
2022/04/04 05:42:34;;;;;;;;;;;7.10;99.90;;;;;;5111599;27;20318;-62
2022/04/04 05:44:59;;;;;;;;;;;7.00;99.90;;;;;;5134916;27;19976;-62
2022/04/04 05:47:26;;;;;;;;;;;7.00;99.90;;;;;;5130260;27;19919;-61
2022/04/04 05:49:52;;;;;;;;;;;7.10;99.90;;;;;;5132248;27;19930;-61
2022/04/04 05:52:20;;;;;;;;;;;7.10;99.90;;;;;;5116051;27;19934;-61
2022/04/04 05:54:55;;;;;;;;;;;7.10;99.90;;;;;;5112469;27;20276;-62
2022/04/04 05:57:24;;;;;;;;;;;7.10;99.90;;;;;;5131695;27;19956;-61
2022/04/04 05:59:50;;;;;;;;;;;7.10;99.90;;;;;;5119536;27;19911;-61
2022/04/04 06:02:16;;;;;;;;;;;7.10;99.90;;;;;;5127594;27;19911;-62
2022/04/04 06:04:42;;;;;;;;;;;7.10;99.90;;;;;;5135625;27;20268;-61
2022/04/04 06:07:08;;;;;;;;;;;7.10;99.90;;;;;;5124491;27;20377;-62
2022/04/04 06:09:34;;;;;;;;;;;7.10;99.90;;;;;;5127821;27;19918;-63
2022/04/04 06:11:59;;;;;;;;;;;7.10;99.90;;;;;;5120360;27;19946;-62
2022/04/04 06:14:26;;;;;;;;;;;7.20;99.90;;;;;;5134223;27;20281;-61
2022/04/04 06:16:51;;;;;;;;;;;7.20;99.90;;;;;;5129642;27;19926;-62
2022/04/04 06:19:17;;;;;;;;;;;7.20;99.90;;;;;;5133120;27;19912;-63
2022/04/04 06:21:42;;;;;;;;;;;7.30;99.90;;;;;;5132981;27;19934;-62
2022/04/04 06:24:08;;;;;;;;;;;7.30;99.90;;;;;;5131119;27;19944;-62
2022/04/04 06:26:34;;;;;;;;;;;7.40;99.90;;;;;;5111203;27;19919;-63
2022/04/04 06:28:59;;;;;;;;;;;7.40;99.90;;;;;;5127135;27;19949;-62
2022/04/04 06:31:25;;;;;;;;;;;7.40;99.90;;;;;;5123263;27;19912;-61
2022/04/04 06:33:50;;;;;;;;;;;7.50;99.90;;;;;;5132843;27;19926;-63
2022/04/04 06:36:16;;;;;;;;;;;7.50;99.90;;;;;;5125184;27;20326;-63
2022/04/04 06:38:42;;;;;;;;;;;7.50;99.90;;;;;;5121576;27;19907;-62
2022/04/04 06:41:07;;;;;;;;;;;7.50;99.90;;;;;;5124839;27;19956;-68
2022/04/04 06:43:33;;;;;;;;;;;7.60;99.90;;;;;;5116215;27;19929;-62
2022/04/04 06:46:00;;;;;;;;;;;7.50;99.90;;;;;;5123107;27;19918;-62
2022/04/04 06:48:28;;;;;;;;;;;7.50;99.90;;;;;;5129521;27;19951;-62
2022/04/04 06:50:54;;;;;;;;;;;7.60;99.90;;;;;;5108088;28;19958;-62
2022/04/04 06:53:22;;;;;;;;;;;7.60;99.90;;;;;;5126916;27;20318;-63
2022/04/04 06:55:48;;;;;;;;;;;7.70;99.90;;;;;;5124684;27;20010;-62
2022/04/04 06:58:13;;;;;;;;;;;7.80;99.90;;;;;;5131876;27;19998;-62
2022/04/04 07:00:40;;;;;;;;;;;7.80;99.90;;;;;;5125333;27;19907;-60
2022/04/04 07:03:08;;;;;;;;;;;7.80;99.90;;;;;;5128825;27;19936;-62
2022/04/04 07:05:34;;;;;;;;;;;7.80;99.90;;;;;;5119256;27;20261;-62
2022/04/04 07:08:00;;;;;;;;;;;7.90;99.90;;;;;;5126319;27;19916;-62
2022/04/04 07:10:25;;;;;;;;;;;7.90;99.90;;;;;;5121026;27;19908;-62
2022/04/04 07:12:51;;;;;;;;;;;8.00;99.90;;;;;;5125587;27;19911;-63
2022/04/04 07:15:16;;;;;;;;;;;8.00;99.90;;;;;;5126879;27;20323;-62
2022/04/04 07:17:43;;;;;;;;;;;8.00;99.90;;;;;;5126721;27;20357;-63
2022/04/04 07:20:09;;;;;;;;;;;8.10;99.90;;;;;;5109093;27;19911;-62
2022/04/04 07:22:38;;;;;;;;;;;8.20;99.90;;;;;;5127330;27;19911;-63
2022/04/04 07:25:04;;;;;;;;;;;8.30;99.90;;;;;;5106398;27;19969;-62
2022/04/04 07:27:30;;;;;;;;;;;8.40;99.90;;;;;;5124509;27;19963;-63
2022/04/04 07:29:56;;;;;;;;;;;8.50;99.90;;;;;;5115164;27;19908;-61
2022/04/04 07:32:21;;;;;;;;;;;8.50;99.90;;;;;;5127657;27;19965;-61
2022/04/04 07:34:47;;;;;;;;;;;8.50;99.90;;;;;;5125198;27;19972;-62
2022/04/04 07:37:13;;;;;;;;;;;8.60;99.90;;;;;;5112181;27;20392;-62
2022/04/04 07:39:39;;;;;;;;;;;8.70;99.90;;;;;;5123052;27;20313;-63
2022/04/04 07:42:06;;;;;;;;;;;8.70;99.90;;;;;;5124621;27;19912;-63
2022/04/04 07:44:31;;;;;;;;;;;8.70;99.90;;;;;;5124454;27;19950;-63
2022/04/04 07:46:57;;;;;;;;;;;8.70;99.90;;;;;;5106933;28;19967;-64
2022/04/04 07:49:23;;;;;;;;;;;8.80;99.90;;;;;;5118714;27;19919;-62
2022/04/04 07:51:49;;;;;;;;;;;9.00;99.90;;;;;;5124550;27;20275;-65
2022/04/04 07:54:14;;;;;;;;;;;9.10;99.90;;;;;;5116314;27;19923;-63
2022/04/04 07:56:40;;;;;;;;;;;9.20;99.90;;;;;;5121430;27;19998;-65
2022/04/04 07:59:06;;;;;;;;;;;9.30;99.90;;;;;;5115984;27;19923;-62
2022/04/04 08:01:32;;;;;;;;;;;9.40;99.90;;;;;;5123893;27;19964;-64
2022/04/04 08:03:57;;;;;;;;;;;9.40;99.90;;;;;;5123482;27;20006;-64
2022/04/04 08:06:23;;;;;;;;;;;9.40;99.90;;;;;;5124398;27;19912;-62
2022/04/04 08:08:48;;;;;;;;;;;9.50;99.90;;;;;;5118859;27;19912;-62
2022/04/04 08:11:14;;;;;;;;;;;9.50;99.90;;;;;;5124197;27;19917;-63
2022/04/04 08:13:44;;;;;;;;;;;9.60;99.90;;;;;;5121462;27;19933;-64
2022/04/04 08:16:09;;;;;;;;;;;9.70;99.90;;;;;;5124323;27;20304;-64
2022/04/04 08:18:35;;;;;;;;;;;9.70;99.90;;;;;;5133152;27;19920;-65
2022/04/04 08:21:01;;;;;;;;;;;9.80;99.90;;;;;;5125854;27;19918;-65
2022/04/04 08:23:31;;;;;;;;;;;9.90;99.90;;;;;;5125878;27;20372;-64
2022/04/04 08:25:57;;;;;;;;;;;10.00;99.90;;;;;;5118659;27;20303;-63
2022/04/04 08:28:23;;;;;;;;;;;10.00;99.90;;;;;;5131257;27;19999;-63
2022/04/04 08:30:50;;;;;;;;;;;10.10;99.90;;;;;;5125896;27;19943;-63
2022/04/04 08:33:17;;;;;;;;;;;10.10;99.90;;;;;;5106703;28;19911;-62
2022/04/04 08:35:42;;;;;;;;;;;10.20;99.90;;;;;;5124139;28;19927;-63
2022/04/04 08:38:08;;;;;;;;;;;10.20;99.90;;;;;;5105572;28;19911;-63
2022/04/04 08:40:34;;;;;;;;;;;10.30;99.90;;;;;;5128052;27;20320;-63
2022/04/04 08:43:00;;;;;;;;;;;10.30;99.90;;;;;;5119199;27;19912;-62
2022/04/04 08:45:26;;;;;;;;;;;10.40;99.90;;;;;;5117332;28;19919;-63
2022/04/04 08:47:55;;;;;;;;;;;10.40;99.90;;;;;;5116578;28;19925;-63
2022/04/04 08:50:21;;;;;;;;;;;10.50;99.90;;;;;;5122690;27;20349;-62
2022/04/04 08:52:48;;;;;;;;;;;10.50;99.90;;;;;;5116764;28;19911;-64
2022/04/04 08:55:15;;;;;;;;;;;10.60;99.90;;;;;;5114870;28;19938;-62
2022/04/04 08:57:41;;;;;;;;;;;10.70;99.90;;;;;;5125718;27;20357;-62
2022/04/04 09:00:08;;;;;;;;;;;10.70;99.90;;;;;;5115022;28;19911;-63
2022/04/04 09:02:34;;;;;;;;;;;10.80;99.90;;;;;;5115544;27;19912;-62
2022/04/04 09:05:04;;;;;;;;;;;10.80;99.90;;;;;;5113463;28;20285;-63
2022/04/04 09:07:29;;;;;;;;;;;10.80;99.90;;;;;;5118667;27;19960;-63
2022/04/04 09:09:55;;;;;;;;;;;10.80;99.90;;;;;;5098803;28;19911;-62
2022/04/04 09:12:22;;;;;;;;;;;10.80;99.90;;;;;;5124948;27;19919;-62
2022/04/04 09:14:49;;;;;;;;;;;10.80;99.90;;;;;;5118062;28;20254;-64
2022/04/04 09:17:16;;;;;;;;;;;10.90;99.90;;;;;;5114200;27;19981;-62
2022/04/04 09:19:42;;;;;;;;;;;10.90;99.90;;;;;;5112958;28;19912;-62
2022/04/04 09:22:09;;;;;;;;;;;10.90;99.90;;;;;;5117314;28;19976;-62
2022/04/04 09:24:42;;;;;;;;;;;10.90;99.90;;;;;;5096871;28;20003;-66
2022/04/04 09:27:12;;;;;;;;;;;10.90;99.90;;;;;;5122552;27;19946;-62
2022/04/04 09:29:42;;;;;;;;;;;11.00;99.90;;;;;;5128920;27;19911;-64
2022/04/04 09:32:17;;;;;;;;;;;11.00;99.90;;;;;;5108748;27;19922;-62
2022/04/04 09:34:49;;;;;;;;;;;11.10;99.90;;;;;;5111267;27;20584;-62
2022/04/04 09:37:15;;;;;;;;;;;11.10;99.90;;;;;;5115385;27;19927;-63
2022/04/04 09:39:41;;;;;;;;;;;11.20;99.90;;;;;;5112973;27;19911;-62
2022/04/04 09:42:14;;;;;;;;;;;11.20;99.90;;;;;;5133314;27;19918;-63
2022/04/04 09:44:39;;;;;;;;;;;11.20;99.90;;;;;;5128877;27;19964;-64
2022/04/04 09:47:05;;;;;;;;;;;11.20;99.90;;;;;;5117920;27;19915;-63
2022/04/04 09:49:37;;;;;;;;;;;11.20;99.90;;;;;;5131164;27;19954;-64
2022/04/04 09:52:03;;;;;;;;;;;11.30;99.90;;;;;;5130763;27;19916;-64
2022/04/04 09:54:29;;;;;;;;;;;11.30;99.90;;;;;;5131314;27;19919;-62
2022/04/04 09:57:10;;;;;;;;;;;11.30;99.90;;;;;;5128219;27;19923;-65
2022/04/04 09:59:39;;;;;;;;;;;11.30;99.90;;;;;;5123935;27;19962;-63
2022/04/04 10:02:05;;;;;;;;;;;11.40;99.90;;;;;;5126875;27;19912;-64
2022/04/04 10:04:31;;;;;;;;;;;11.40;99.90;;;;;;5122757;27;20257;-63
2022/04/04 10:06:57;;;;;;;;;;;11.40;99.90;;;;;;5124173;27;19955;-63
2022/04/04 10:09:24;;;;;;;;;;;11.50;99.90;;;;;;5081548;28;19919;-63
2022/04/04 10:11:51;;;;;;;;;;;11.60;99.90;;;;;;5119152;27;19919;-62
2022/04/04 10:14:16;;;;;;;;;;;11.70;99.90;;;;;;5099641;28;20334;-63
2022/04/04 10:16:43;;;;;;;;;;;11.70;99.90;;;;;;5123381;27;19926;-62
2022/04/04 10:19:10;;;;;;;;;;;11.70;99.90;;;;;;5122123;27;19923;-62
2022/04/04 10:21:36;;;;;;;;;;;11.80;99.90;;;;;;5125475;27;19934;-64
2022/04/04 10:24:02;;;;;;;;;;;11.70;99.90;;;;;;5119578;27;20357;-63
2022/04/04 10:26:32;;;;;;;;;;;11.80;99.90;;;;;;5117861;27;20011;-63
2022/04/04 10:29:09;;;;;;;;;;;11.70;99.90;;;;;;5087622;27;20365;-68
2022/04/04 10:32:02;;;;;;;;;;;11.70;99.90;;;;;;5116725;27;19954;-63
2022/04/04 10:34:28;;;;;;;;;;;11.80;99.90;;;;;;5117616;27;19938;-62
2022/04/04 10:37:01;;;;;;;;;;;11.70;99.90;;;;;;5119556;27;19924;-66
2022/04/04 10:39:33;;;;;;;;;;;11.80;99.90;;;;;;5119068;27;19915;-62
2022/04/04 10:41:59;;;;;;;;;;;11.70;99.90;;;;;;5101587;27;20523;-65
2022/04/04 10:44:43;;;;;;;;;;;11.60;99.90;;;;;;5118309;27;20003;-62
2022/04/04 10:47:22;;;;;;;;;;;11.50;99.90;;;;;;5117648;27;20022;-63
2022/04/04 10:49:48;;;;;;;;;;;11.70;99.90;;;;;;5126890;27;20271;-62
2022/04/04 10:52:17;;;;;;;;;;;11.70;99.90;;;;;;5128445;27;20101;-63
2022/04/04 10:54:42;;;;;;;;;;;11.70;99.90;;;;;;5119022;27;20003;-61
2022/04/04 10:57:17;;;;;;;;;;;11.80;99.90;;;;;;5128414;27;20432;-62
2022/04/04 10:59:46;;;;;;;;;;;11.90;99.90;;;;;;5123350;27;20010;-63
2022/04/04 11:02:13;;;;;;;;;;;12.00;99.90;;;;;;5118206;27;19986;-63
2022/04/04 11:07:38;;;;;;;;;;;12.10;99.90;;;;;;5122931;27;19912;-62
2022/04/04 11:07:38;;;;;;;;;;;12.20;99.90;;;;;;5123862;27;20060;-63
2022/04/04 11:10:10;;;;;;;;;;;12.10;99.90;;;;;;5121668;27;19915;-62
2022/04/04 11:12:55;;;;;;;;;;;12.10;99.90;;;;;;5129707;27;20294;-63
2022/04/04 11:15:43;;;;;;;;;;;12.40;99.90;;;;;;5125705;27;19941;-62
2022/04/04 11:18:10;;;;;;;;;;;12.70;99.90;;;;;;5119860;27;19916;-63
2022/04/04 11:20:41;;;;;;;;;;;12.70;99.90;;;;;;5118487;27;19918;-63
2022/04/04 11:23:11;;;;;;;;;;;12.60;99.90;;;;;;5122740;27;19957;-62
2022/04/04 11:25:44;;;;;;;;;;;12.70;99.90;;;;;;5131355;27;19922;-61
2022/04/04 11:28:10;;;;;;;;;;;12.90;99.90;;;;;;5117389;27;19957;-61
2022/04/04 11:30:36;;;;;;;;;;;13.00;99.90;;;;;;5123640;27;20010;-63
2022/04/04 11:33:02;;;;;;;;;;;13.00;99.90;;;;;;5122394;27;19957;-61
2022/04/04 11:35:30;;;;;;;;;;;13.10;99.90;;;;;;5101829;28;19972;-64
2022/04/04 11:37:59;;;;;;;;;;;13.20;99.90;;;;;;5130756;27;20230;-63
2022/04/04 11:40:29;;;;;;;;;;;13.30;99.90;;;;;;5104107;27;19922;-63
2022/04/04 11:42:56;;;;;;;;;;;13.40;99.90;;;;;;5128161;27;19919;-63
2022/04/04 11:45:23;;;;;;;;;;;13.40;99.90;;;;;;5121231;27;19911;-64
2022/04/04 11:47:56;;;;;;;;;;;13.40;99.90;;;;;;5114050;28;19919;-63
2022/04/04 11:50:24;;;;;;;;;;;13.50;99.90;;;;;;5126381;27;19912;-63
2022/04/04 11:52:55;;;;;;;;;;;13.50;99.90;;;;;;5116929;27;19934;-65
2022/04/04 11:55:25;;;;;;;;;;;13.50;99.90;;;;;;5129510;27;20342;-63
2022/04/04 11:57:56;;;;;;;;;;;13.50;99.90;;;;;;5111921;27;19911;-63
2022/04/04 12:00:22;;;;;;;;;;;13.50;99.90;;;;;;5128853;27;19915;-63
2022/04/04 12:02:48;;;;;;;;;;;13.60;99.90;;;;;;5130413;27;19912;-63
2022/04/04 12:05:14;;;;;;;;;;;13.60;99.90;;;;;;5106084;28;19964;-62
2022/04/04 12:07:41;;;;;;;;;;;13.70;99.90;;;;;;5127304;27;20005;-65
2022/04/04 12:10:07;;;;;;;;;;;13.60;99.90;;;;;;5114547;27;20355;-64
2022/04/04 12:12:33;;;;;;;;;;;13.60;99.90;;;;;;5130034;27;20399;-63
2022/04/04 12:14:59;;;;;;;;;;;13.60;99.90;;;;;;5117139;27;19911;-62
2022/04/04 12:17:25;;;;;;;;;;;13.80;99.90;;;;;;5130550;27;19918;-65
2022/04/04 12:19:52;;;;;;;;;;;13.90;99.90;;;;;;5120149;27;19922;-64
2022/04/04 12:25:03;;;;;;;;;;;13.80;99.90;;;;;;5125765;27;20018;-65
2022/04/04 12:27:29;;;;;;;;;;;14.00;99.90;;;;;;5123573;27;19912;-62
2022/04/04 12:29:59;;;;;;;;;;;13.90;99.90;;;;;;5105223;27;19942;-63
2022/04/04 12:32:25;;;;;;;;;;;13.90;99.90;;;;;;5127517;27;19954;-63
2022/04/04 12:35:09;;;;;;;;;;;14.00;99.90;;;;;;5131695;28;19972;-63
2022/04/04 12:37:38;;;;;;;;;;;14.10;99.90;;;;;;5113509;28;19927;-63
2022/04/04 12:40:16;;;;;;;;;;;14.00;99.90;;;;;;5110952;28;19918;-64
2022/04/04 12:42:43;;;;;;;;;;;14.10;99.90;;;;;;5126644;28;19971;-64
2022/04/04 12:45:08;;;;;;;;;;;14.10;99.90;;;;;;5105975;28;19958;-64
2022/04/04 12:47:34;;;;;;;;;;;14.20;99.90;;;;;;5116883;28;19915;-63
2022/04/04 12:50:13;;;;;;;;;;;14.30;99.90;;;;;;5121631;27;19911;-62
2022/04/04 12:52:54;;;;;;;;;;;14.30;99.90;;;;;;5124790;28;19919;-66
2022/04/04 12:55:20;;;;;;;;;;;14.20;99.90;;;;;;5130068;28;19955;-64
2022/04/04 12:57:45;;;;;;;;;;;14.30;99.90;;;;;;5112453;28;20366;-64
2022/04/04 13:00:11;;;;;;;;;;;14.40;99.90;;;;;;5107220;28;19907;-64
2022/04/04 13:02:37;;;;;;;;;;;14.40;99.90;;;;;;5122125;28;20284;-67
2022/04/04 13:05:16;;;;;;;;;;;14.60;99.90;;;;;;5114811;28;20361;-64
2022/04/04 13:07:54;;;;;;;;;;;14.80;99.90;;;;;;5135899;27;19933;-63
2022/04/04 13:10:24;;;;;;;;;;;15.00;99.90;;;;;;5119909;27;19912;-64
2022/04/04 13:12:50;;;;;;;;;;;15.00;99.90;;;;;;5116772;28;20416;-63
2022/04/04 13:15:34;;;;;;;;;;;14.90;99.90;;;;;;5118224;27;20368;-65
2022/04/04 13:18:01;;;;;;;;;;;15.10;99.90;;;;;;5128184;27;19978;-64
2022/04/04 13:20:27;;;;;;;;;;;15.40;99.90;;;;;;5122490;27;20295;-64
2022/04/04 13:22:53;;;;;;;;;;;15.90;99.90;;;;;;5142599;27;19912;-63
2022/04/04 13:25:19;;;;;;;;;;;16.30;99.90;;;;;;5135278;27;19912;-64
2022/04/04 13:27:44;;;;;;;;;;;16.20;99.90;;;;;;5130156;27;19919;-64
2022/04/04 13:30:11;;;;;;;;;;;16.20;99.90;;;;;;5144748;27;20321;-64
2022/04/04 13:32:38;;;;;;;;;;;16.20;99.90;;;;;;5125928;27;19972;-64
2022/04/04 13:35:03;;;;;;;;;;;16.20;99.90;;;;;;5114919;27;19920;-64
2022/04/04 13:37:29;;;;;;;;;;;16.10;99.90;;;;;;5118729;28;19923;-63
2022/04/04 13:39:54;;;;;;;;;;;15.90;99.90;;;;;;5136172;27;19911;-63
2022/04/04 13:42:21;;;;;;;;;;;15.80;99.90;;;;;;5140749;27;20002;-63
2022/04/04 13:44:47;;;;;;;;;;;16.00;99.90;;;;;;5137880;27;19922;-63
2022/04/04 13:47:13;;;;;;;;;;;15.90;99.90;;;;;;5140696;27;19912;-62
2022/04/04 13:49:38;;;;;;;;;;;15.90;99.90;;;;;;5133597;28;19912;-63
2022/04/04 13:52:06;;;;;;;;;;;16.20;99.90;;;;;;5125458;27;19912;-63
2022/04/04 13:54:31;;;;;;;;;;;16.20;99.90;;;;;;5120948;28;19911;-63
2022/04/04 13:56:57;;;;;;;;;;;15.70;99.90;;;;;;5143176;27;19926;-62
2022/04/04 13:59:23;;;;;;;;;;;15.50;99.90;;;;;;5142192;27;19915;-63
2022/04/04 14:01:48;;;;;;;;;;;15.40;99.90;;;;;;5141601;27;19912;-63
2022/04/04 14:04:14;;;;;;;;;;;15.40;99.90;;;;;;5132504;27;19916;-63
2022/04/04 14:06:40;;;;;;;;;;;15.60;99.90;;;;;;5128533;27;19943;-63
2022/04/04 14:09:05;;;;;;;;;;;15.50;99.90;;;;;;5131151;27;19911;-63
2022/04/04 14:11:31;;;;;;;;;;;15.50;99.90;;;;;;5121282;27;19954;-62
2022/04/04 14:13:57;;;;;;;;;;;15.30;99.90;;;;;;5141859;27;19918;-62
2022/04/04 14:16:22;;;;;;;;;;;15.20;99.90;;;;;;5132394;27;19915;-63
2022/04/04 14:18:48;;;;;;;;;;;15.30;99.90;;;;;;5139168;27;19923;-65
2022/04/04 14:21:15;;;;;;;;;;;15.60;99.90;;;;;;5132068;27;19956;-62
2022/04/04 14:23:41;;;;;;;;;;;15.60;99.90;;;;;;5131891;27;19918;-62
2022/04/04 14:26:07;;;;;;;;;;;15.50;99.90;;;;;;5117695;27;19911;-63
2022/04/04 14:28:33;;;;;;;;;;;15.60;99.90;;;;;;5131459;27;19946;-62
2022/04/04 14:31:03;;;;;;;;;;;15.80;99.90;;;;;;5128999;27;19912;-63
2022/04/04 14:33:29;;;;;;;;;;;15.90;99.90;;;;;;5132626;27;19911;-64